Time;durP1;ratioP1;P1;durP2;ratioP2;P2;SDS_P1;SDS_P2;PMS_P1;PMS_P2;Temp;Humidity;BMP_temperature;BMP_pressure;BME280_temperature;BME280_humidity;BME280_pressure;Samples;Min_cycle;Max_cycle;Signal;HPM_P1;HPM_P2
2021/04/01 00:01:46;;;;;;;4.82;1.77;;;;;;;16.31;37.02;97493.38;5074822;27;20031;-77
2021/04/01 00:04:12;;;;;;;7.13;2.22;;;;;;;16.44;37.08;97484.09;5076550;27;20023;-76
2021/04/01 00:06:37;;;;;;;4.85;1.73;;;;;;;16.54;36.82;97484.03;5106487;27;20042;-76
2021/04/01 00:09:04;;;;;;;5.40;2.42;;;;;;;16.69;36.56;97485.75;5090113;27;20035;-76
2021/04/01 00:11:29;;;;;;;6.00;1.95;;;;;;;16.87;35.97;97486.94;5093688;27;20043;-77
2021/04/01 00:13:55;;;;;;;4.53;1.50;;;;;;;16.96;36.01;97480.00;5102326;27;20082;-76
2021/04/01 00:16:22;;;;;;;3.97;1.77;;;;;;;17.04;36.47;97476.00;5092577;28;20346;-76
2021/04/01 00:18:47;;;;;;;5.00;1.77;;;;;;;17.06;35.76;97470.44;5077044;28;20506;-76
2021/04/01 00:21:13;;;;;;;5.22;2.13;;;;;;;17.01;36.07;97472.06;5107416;28;20031;-76
2021/04/01 00:23:38;;;;;;;5.72;1.83;;;;;;;17.04;36.22;97476.75;5076807;28;20044;-76
2021/04/01 00:26:03;;;;;;;2.90;1.88;;;;;;;16.84;36.31;97476.97;5106836;28;20120;-76
2021/04/01 00:28:29;;;;;;;4.20;2.17;;;;;;;16.69;36.50;97466.53;5101049;28;20458;-76
2021/04/01 00:30:54;;;;;;;4.30;2.75;;;;;;;16.65;36.79;97466.31;5082472;28;20123;-74
2021/04/01 00:33:20;;;;;;;4.78;2.60;;;;;;;16.64;36.59;97468.16;5099611;28;20085;-74
2021/04/01 00:35:45;;;;;;;5.63;2.55;;;;;;;16.78;36.61;97470.16;5077455;28;20024;-77
2021/04/01 00:38:10;;;;;;;4.55;1.83;;;;;;;16.63;36.54;97469.22;5098707;28;20028;-76
2021/04/01 00:40:36;;;;;;;7.25;2.30;;;;;;;16.48;37.24;97471.97;5103626;28;20054;-76
2021/04/01 00:43:01;;;;;;;4.13;2.53;;;;;;;16.18;37.72;97463.25;5099968;28;20603;-76
2021/04/01 00:45:27;;;;;;;5.10;2.33;;;;;;;16.10;38.38;97464.59;5104532;28;20469;-76
2021/04/01 00:47:53;;;;;;;4.35;1.77;;;;;;;16.28;37.48;97459.78;5092255;28;20024;-76
2021/04/01 00:50:25;;;;;;;3.67;1.73;;;;;;;16.27;37.28;97461.63;5087757;28;20027;-74
2021/04/01 00:52:50;;;;;;;2.97;1.80;;;;;;;16.53;37.05;97456.16;5095764;28;20024;-74
2021/04/01 00:55:16;;;;;;;4.50;1.90;;;;;;;16.53;36.69;97453.53;5073578;28;20360;-76
2021/04/01 00:57:43;;;;;;;4.47;2.00;;;;;;;16.51;36.75;97455.66;5082915;28;20031;-76
2021/04/01 01:00:12;;;;;;;4.82;1.88;;;;;;;16.33;36.87;97445.81;5073445;28;20444;-76
2021/04/01 01:02:37;;;;;;;5.82;2.10;;;;;;;16.42;37.42;97447.59;5073210;28;20494;-76
2021/04/01 01:05:04;;;;;;;3.22;1.80;;;;;;;16.47;36.92;97446.75;5102828;28;20450;-76
2021/04/01 01:07:30;;;;;;;5.57;1.90;;;;;;;16.54;37.10;97443.81;5089034;28;20478;-76
2021/04/01 01:09:55;;;;;;;3.25;1.88;;;;;;;16.54;36.97;97441.19;5091273;28;20039;-76
2021/04/01 01:12:20;;;;;;;4.20;1.98;;;;;;;16.45;36.23;97433.91;5083373;28;20098;-76
2021/04/01 01:14:46;;;;;;;3.22;2.15;;;;;;;16.47;37.34;97431.00;5108011;28;20081;-74
2021/04/01 01:17:13;;;;;;;4.65;2.10;;;;;;;16.26;37.37;97428.53;5103845;28;20036;-74
2021/04/01 01:19:40;;;;;;;5.50;2.08;;;;;;;16.12;37.57;97432.81;5100400;27;20039;-74
2021/04/01 01:22:06;;;;;;;5.50;1.80;;;;;;;15.97;37.92;97438.19;5093780;27;20076;-74
2021/04/01 01:24:35;;;;;;;3.20;1.80;;;;;;;15.87;38.19;97437.19;5112480;27;20055;-76
2021/04/01 01:27:02;;;;;;;5.75;1.83;;;;;;;16.10;37.63;97432.31;5092874;27;20027;-76
2021/04/01 01:29:28;;;;;;;4.07;1.88;;;;;;;16.24;37.83;97438.50;5089432;27;20035;-76
2021/04/01 01:31:53;;;;;;;3.08;1.92;;;;;;;16.24;37.50;97427.22;5089706;27;20034;-76
2021/04/01 01:34:19;;;;;;;3.72;1.80;;;;;;;16.22;37.18;97435.38;5085227;27;20034;-76
2021/04/01 01:36:44;;;;;;;4.15;2.03;;;;;;;16.06;37.95;97439.19;5088983;27;20030;-76
2021/04/01 01:39:10;;;;;;;4.00;1.95;;;;;;;15.95;38.84;97427.16;5095081;27;20098;-76
2021/04/01 01:41:35;;;;;;;4.45;1.92;;;;;;;15.80;38.72;97428.03;5107544;27;20557;-76
2021/04/01 01:44:01;;;;;;;2.97;2.00;;;;;;;15.57;39.97;97421.56;5071639;27;20076;-76
2021/04/01 01:46:27;;;;;;;2.90;1.75;;;;;;;15.45;39.77;97425.28;5107443;27;20806;-76
2021/04/01 01:49:00;;;;;;;3.80;1.80;;;;;;;15.13;39.93;97420.44;5108832;27;20031;-76
2021/04/01 01:51:28;;;;;;;3.90;1.75;;;;;;;15.38;39.46;97424.81;5077066;27;20023;-76
2021/04/01 01:53:53;;;;;;;2.60;1.50;;;;;;;15.33;39.27;97414.31;5094468;27;20263;-76
2021/04/01 01:56:20;;;;;;;3.25;1.35;;;;;;;15.27;39.44;97416.19;5103922;27;20035;-73
2021/04/01 01:58:47;;;;;;;3.83;2.03;;;;;;;15.27;38.78;97421.44;5090903;28;20028;-74
2021/04/01 02:01:12;;;;;;;5.15;1.70;;;;;;;15.28;39.01;97417.75;5078487;27;20034;-73
2021/04/01 02:03:38;;;;;;;3.05;1.90;;;;;;;15.25;38.72;97412.25;5129968;27;20039;-74
2021/04/01 02:06:04;;;;;;;3.65;1.50;;;;;;;15.40;38.56;97424.53;5128517;27;20039;-74
2021/04/01 02:08:29;;;;;;;2.83;1.70;;;;;;;15.48;38.09;97414.25;5104715;28;20096;-74
2021/04/01 02:10:55;;;;;;;2.78;1.63;;;;;;;15.54;38.06;97415.81;5101169;28;20074;-74
2021/04/01 02:13:22;;;;;;;4.03;1.50;;;;;;;15.54;38.06;97422.88;5122376;27;20023;-74
2021/04/01 02:15:49;;;;;;;3.20;1.70;;;;;;;15.54;38.54;97425.50;5070061;28;20035;-74
2021/04/01 02:18:16;;;;;;;3.17;1.63;;;;;;;15.47;38.56;97423.22;5100789;28;20024;-74
2021/04/01 02:20:45;;;;;;;2.50;2.10;;;;;;;15.59;38.56;97428.13;5112293;27;20404;-74
2021/04/01 02:23:14;;;;;;;4.50;1.90;;;;;;;15.40;38.01;97425.31;5122786;27;20381;-74
2021/04/01 02:25:41;;;;;;;4.30;1.50;;;;;;;15.35;38.87;97427.97;5085986;28;20060;-74
2021/04/01 02:28:07;;;;;;;3.10;1.60;;;;;;;15.32;38.36;97423.28;5108330;28;20522;-74
2021/04/01 02:30:34;;;;;;;4.60;1.60;;;;;;;15.35;38.44;97423.50;5130014;27;20063;-74
2021/04/01 02:32:59;;;;;;;4.65;1.77;;;;;;;15.46;38.77;97429.50;5079232;27;20045;-74
2021/04/01 02:35:25;;;;;;;3.95;1.58;;;;;;;15.52;38.08;97423.19;5109053;28;20023;-74
2021/04/01 02:37:50;;;;;;;5.00;1.80;;;;;;;15.40;38.53;97422.69;5091141;27;20433;-74
2021/04/01 02:40:16;;;;;;;6.43;2.05;;;;;;;15.34;38.63;97419.31;5123851;27;20062;-74
2021/04/01 02:42:41;;;;;;;5.32;2.25;;;;;;;15.35;38.56;97412.22;5095611;27;20057;-74
2021/04/01 02:45:08;;;;;;;2.55;1.55;;;;;;;15.42;38.80;97417.97;5078972;27;20450;-74
2021/04/01 02:47:34;;;;;;;4.22;1.73;;;;;;;15.47;38.58;97409.28;5087596;27;20557;-74
2021/04/01 02:49:59;;;;;;;4.63;1.67;;;;;;;15.44;38.52;97415.88;5087816;27;20031;-74
2021/04/01 02:52:24;;;;;;;4.18;1.83;;;;;;;15.48;38.48;97411.63;5126254;27;20031;-74
2021/04/01 02:54:50;;;;;;;3.58;1.60;;;;;;;15.40;38.55;97414.81;5093296;27;20304;-74
2021/04/01 02:57:16;;;;;;;3.53;1.70;;;;;;;15.14;39.38;97412.28;5077529;28;20035;-76
2021/04/01 02:59:42;;;;;;;5.22;1.83;;;;;;;15.14;40.16;97417.53;5104782;27;20541;-76
2021/04/01 03:02:09;;;;;;;3.22;1.60;;;;;;;15.06;40.71;97412.06;5085156;27;20032;-76
2021/04/01 03:04:34;;;;;;;2.60;1.38;;;;;;;14.98;40.36;97416.81;5079060;27;20534;-76
2021/04/01 03:07:00;;;;;;;4.28;2.00;;;;;;;14.93;39.93;97416.03;5081584;27;20123;-76
2021/04/01 03:09:25;;;;;;;7.32;1.98;;;;;;;15.04;39.94;97414.94;5078003;27;20058;-76
2021/04/01 03:11:51;;;;;;;4.65;2.00;;;;;;;15.02;39.78;97411.03;5068598;28;20024;-76
2021/04/01 03:14:16;;;;;;;5.50;1.77;;;;;;;15.07;40.21;97414.41;5088246;27;20114;-76
2021/04/01 03:16:44;;;;;;;2.85;1.67;;;;;;;15.16;40.25;97418.09;5108600;28;20042;-76
2021/04/01 03:19:09;;;;;;;5.68;1.88;;;;;;;15.13;40.79;97409.94;5069208;28;20020;-76
2021/04/01 03:21:34;;;;;;;4.60;1.85;;;;;;;15.11;40.46;97422.53;5093251;27;20031;-76
2021/04/01 03:24:00;;;;;;;3.95;2.17;;;;;;;14.99;40.77;97414.97;5106808;28;20517;-76
2021/04/01 03:26:26;;;;;;;4.20;1.60;;;;;;;14.89;41.04;97415.78;5106888;28;20035;-76
2021/04/01 03:28:52;;;;;;;4.35;1.98;;;;;;;14.72;41.52;97416.09;5108059;28;20118;-76
2021/04/01 03:31:17;;;;;;;3.28;1.90;;;;;;;14.70;41.92;97410.31;5104615;28;20119;-76
2021/04/01 03:33:42;;;;;;;4.00;1.52;;;;;;;14.68;41.62;97412.41;5127753;27;20038;-76
2021/04/01 03:36:08;;;;;;;5.07;1.98;;;;;;;14.68;41.53;97415.03;5097130;28;20276;-76
2021/04/01 03:38:34;;;;;;;2.88;1.70;;;;;;;14.62;41.72;97413.47;5111343;27;20549;-76
2021/04/01 03:41:02;;;;;;;2.47;1.88;;;;;;;14.50;42.07;97410.31;5122596;27;20037;-76
2021/04/01 03:43:27;;;;;;;4.57;1.60;;;;;;;14.48;42.15;97422.88;5107787;27;20325;-76
2021/04/01 03:45:54;;;;;;;5.47;2.80;;;;;;;14.24;43.28;97421.59;5100755;27;20042;-76
2021/04/01 03:48:19;;;;;;;5.03;2.00;;;;;;;14.15;43.28;97423.13;5106552;28;20077;-76
2021/04/01 03:50:45;;;;;;;3.75;1.60;;;;;;;14.14;43.44;97426.81;5109739;27;20486;-76
2021/04/01 03:53:11;;;;;;;3.40;2.03;;;;;;;14.09;42.71;97416.34;5129760;27;20035;-76
2021/04/01 03:55:44;;;;;;;4.47;1.83;;;;;;;14.11;42.96;97418.69;5078434;27;20096;-76
2021/04/01 04:00:41;;;;;;;5.00;2.10;;;;;;;14.24;42.67;97415.56;5122575;27;20027;-76
2021/04/01 04:03:22;;;;;;;3.47;2.15;;;;;;;14.30;42.70;97414.50;5129901;27;20521;-77
2021/04/01 04:06:12;;;;;;;12.02;3.15;;;;;;;14.29;43.20;97423.44;5112374;27;20034;-76
2021/04/01 04:09:01;;;;;;;5.55;2.33;;;;;;;14.24;43.05;97418.19;5094755;27;20087;-76
2021/04/01 04:11:34;;;;;;;3.35;1.95;;;;;;;14.24;43.23;97420.81;5096231;27;20027;-76
2021/04/01 04:16:25;;;;;;;4.10;1.83;;;;;;;14.32;42.96;97422.88;5126993;27;20427;-76
2021/04/01 04:18:50;;;;;;;3.63;2.00;;;;;;;14.36;42.22;97426.56;5107126;28;20028;-76
2021/04/01 04:21:17;;;;;;;4.25;2.30;;;;;;;14.54;41.53;97427.09;5110454;28;20031;-76
2021/04/01 04:23:49;;;;;;;5.10;2.00;;;;;;;14.52;42.34;97423.94;5125894;28;20043;-76
2021/04/01 04:26:15;;;;;;;3.50;1.80;;;;;;;14.52;42.24;97416.09;5094231;28;20028;-76
2021/04/01 04:28:41;;;;;;;5.68;2.00;;;;;;;14.67;42.11;97423.16;5104303;28;20086;-76
2021/04/01 04:31:07;;;;;;;5.75;2.35;;;;;;;14.72;42.19;97416.09;5097007;28;20475;-76
2021/04/01 04:33:32;;;;;;;7.38;2.25;;;;;;;14.91;41.32;97416.31;5107030;28;20031;-76
2021/04/01 04:35:58;;;;;;;3.60;2.13;;;;;;;15.11;41.36;97417.28;5057462;28;20044;-76
2021/04/01 04:38:24;;;;;;;5.55;2.13;;;;;;;15.20;41.32;97415.69;5084615;28;20160;-76
2021/04/01 04:40:54;;;;;;;3.90;2.50;;;;;;;15.28;41.52;97422.22;5092967;28;20111;-76
2021/04/01 04:43:19;;;;;;;4.93;2.42;;;;;;;15.48;41.90;97416.88;5110885;28;20023;-76
2021/04/01 04:45:47;;;;;;;8.27;2.70;;;;;;;15.23;42.42;97417.00;5110917;28;20035;-76
2021/04/01 04:48:13;;;;;;;4.95;2.60;;;;;;;15.23;42.93;97420.38;5083912;28;20016;-76
2021/04/01 04:50:38;;;;;;;5.88;2.42;;;;;;;15.30;42.03;97428.78;5128431;28;20050;-76
2021/04/01 04:53:04;;;;;;;6.32;2.22;;;;;;;15.36;41.48;97422.44;5110817;27;20035;-76
2021/04/01 04:55:30;;;;;;;6.45;2.83;;;;;;;15.26;41.71;97424.34;5090421;27;20075;-76
2021/04/01 05:05:40;;;;;;;5.03;2.50;;;;;;;14.79;44.30;97429.69;5112915;27;20358;-76
2021/04/01 05:08:05;;;;;;;3.90;2.17;;;;;;;14.77;43.68;97431.00;5083639;27;20054;-76
2021/04/01 05:10:31;;;;;;;3.63;2.10;;;;;;;14.65;43.72;97438.34;5102602;27;20088;-76
2021/04/01 05:13:14;;;;;;;4.70;2.50;;;;;;;14.51;43.59;97435.47;5080722;27;20434;-76
2021/04/01 05:15:42;;;;;;;4.40;2.35;;;;;;;14.34;44.15;97441.78;5074768;27;20102;-76
2021/04/01 05:20:46;;;;;;;4.70;1.95;;;;;;;14.16;45.00;97435.19;5101596;28;20454;-76
2021/04/01 05:26:03;;;;;;;3.90;2.20;;;;;;;14.25;45.62;97445.94;5106353;27;20036;-76
2021/04/01 05:28:33;;;;;;;6.93;2.70;;;;;;;14.17;45.19;97443.81;5128405;27;20043;-76
2021/04/01 05:31:00;;;;;;;6.00;2.60;;;;;;;14.30;44.95;97439.91;5106634;27;20036;-76
2021/04/01 05:33:32;;;;;;;6.82;3.03;;;;;;;14.19;46.82;97428.66;5112162;27;20032;-76
2021/04/01 05:35:58;;;;;;;4.82;2.70;;;;;;;14.43;46.17;97432.31;5121964;27;20054;-76
2021/04/01 05:38:23;;;;;;;4.93;2.65;;;;;;;14.61;45.41;97436.25;5083946;27;20020;-76
2021/04/01 05:40:48;;;;;;;4.75;3.25;;;;;;;14.65;45.87;97427.88;5111750;27;20094;-76
2021/04/01 05:43:19;;;;;;;5.20;2.80;;;;;;;14.84;44.31;97423.66;5079900;27;20072;-77
2021/04/01 05:45:53;;;;;;;4.90;2.90;;;;;;;14.98;43.43;97429.91;5094285;27;20498;-76
2021/04/01 05:48:34;;;;;;;6.97;3.28;;;;;;;15.08;44.10;97429.13;5132061;27;20120;-76
2021/04/01 05:54:26;;;;;;;5.03;2.70;;;;;;;15.58;44.99;97429.19;5094445;28;20027;-76
2021/04/01 06:04:33;;;;;;;;;;;;;;;15.68;43.16;97446.72;5085049;27;20030;-76
2021/04/01 06:07:04;;;;;;;4.72;2.30;;;;;;;15.85;42.25;97451.63;5091624;27;20365;-76
2021/04/01 06:09:34;;;;;;;5.57;2.10;;;;;;;16.08;42.26;97450.19;5113384;27;20647;-77
2021/04/01 06:12:00;;;;;;;2.90;2.33;;;;;;;16.32;42.54;97454.78;5096259;27;20023;-76
2021/04/01 06:14:38;;;;;;;6.07;2.65;;;;;;;16.25;43.55;97452.44;5086510;27;20050;-76
2021/04/01 06:17:07;;;;;;;5.15;2.55;;;;;;;16.52;41.99;97448.53;5093407;27;20394;-76
2021/04/01 06:19:47;;;;;;;4.15;2.53;;;;;;;16.54;42.81;97449.09;5112650;27;20046;-76
2021/04/01 06:22:13;;;;;;;4.65;2.20;;;;;;;16.95;41.83;97452.13;5096180;27;20035;-76
2021/04/01 06:24:38;;;;;;;5.07;2.47;;;;;;;17.04;41.53;97453.09;5096014;27;20034;-76
2021/04/01 06:27:24;;;;;;;6.13;2.22;;;;;;;16.90;41.79;97454.03;5096388;27;20027;-76
2021/04/01 06:32:53;;;;;;;6.55;2.42;;;;;;;17.21;41.43;97451.88;5114684;27;20448;-76
2021/04/01 06:40:46;;;;;;;4.85;2.63;;;;;;;17.69;40.71;97451.81;5112230;27;20106;-76
2021/04/01 06:43:22;;;;;;;6.00;2.65;;;;;;;17.84;40.90;97450.84;5095976;27;20425;-76
2021/04/01 06:46:06;;;;;;;7.35;2.80;;;;;;;17.80;40.19;97452.47;5112390;27;20225;-76
2021/04/01 06:48:59;;;;;;;3.58;2.42;;;;;;;18.15;40.28;97453.84;5105920;27;20038;-76
2021/04/01 06:51:27;;;;;;;6.13;2.78;;;;;;;18.53;40.08;97440.59;5114533;27;20114;-76
2021/04/01 06:56:44;;;;;;;3.38;2.75;;;;;;;18.96;38.65;97446.75;5112275;27;20031;-74
2021/04/01 06:59:55;;;;;;;4.40;2.60;;;;;;;18.96;38.71;97447.53;5096171;27;20042;-74
2021/04/01 07:02:31;;;;;;;5.03;2.92;;;;;;;19.37;38.14;97451.28;5055514;27;20035;-74
2021/04/01 07:05:12;;;;;;;3.95;2.58;;;;;;;18.94;39.10;97451.56;5096140;27;20481;-74
2021/04/01 07:07:43;;;;;;;5.25;3.25;;;;;;;19.01;39.12;97457.22;5106239;27;20035;-75
2021/04/01 07:12:39;;;;;;;5.05;2.53;;;;;;;18.87;39.86;97454.56;5091766;28;20172;-74
2021/04/01 07:15:11;;;;;;;4.22;2.30;;;;;;;18.83;40.34;97454.38;5098369;28;20059;-74
2021/04/01 07:17:55;;;;;;;6.40;2.53;;;;;;;19.02;39.23;97453.50;5048678;27;20042;-74
2021/04/01 07:20:33;;;;;;;3.65;2.75;;;;;;;19.39;38.41;97452.53;5107262;27;20551;-74
2021/04/01 07:47:42;;;;;;;4.82;3.20;;;;;;;22.80;31.70;97475.16;5087815;28;20028;-75
2021/04/01 07:50:21;;;;;;;4.80;3.40;;;;;;;22.91;30.89;97479.03;5100929;27;20261;-76
2021/04/01 07:52:57;;;;;;;6.97;2.97;;;;;;;22.98;30.95;97481.97;5111974;27;20070;-75
2021/04/01 07:58:29;;;;;;;4.72;3.28;;;;;;;23.02;30.67;97484.78;5112093;27;20035;-75
2021/04/01 08:01:10;;;;;;;5.47;3.00;;;;;;;23.36;30.59;97489.19;5110923;27;20035;-75
2021/04/01 08:06:04;;;;;;;4.22;3.00;;;;;;;23.76;30.19;97482.72;5080520;28;20042;-75
2021/04/01 08:08:35;;;;;;;4.55;2.78;;;;;;;23.52;30.23;97472.69;5064401;27;20023;-75
2021/04/01 08:11:03;;;;;;;6.47;3.28;;;;;;;24.08;29.22;97470.63;5108217;28;20072;-75
2021/04/01 08:13:31;;;;;;;4.07;2.85;;;;;;;24.10;29.75;97470.31;5094224;27;20088;-76
2021/04/01 08:16:03;;;;;;;4.45;3.00;;;;;;;24.07;29.58;97470.94;5111272;28;20043;-75
2021/04/01 08:18:39;;;;;;;4.95;3.10;;;;;;;24.48;29.18;97472.00;5109774;28;20420;-75
2021/04/01 08:21:11;;;;;;;5.10;3.20;;;;;;;24.52;28.81;97469.47;5089170;28;20032;-75
2021/04/01 08:24:03;;;;;;;6.80;3.00;;;;;;;24.60;28.67;97479.28;5086099;28;20031;-75
2021/04/01 08:36:45;;;;;;;;;;;;;;;24.70;29.17;97475.44;5102096;27;20436;-75
2021/04/01 08:39:12;;;;;;;7.75;3.08;;;;;;;25.17;29.30;97478.50;5093496;27;19912;-75
2021/04/01 08:42:06;;;;;;;8.07;3.40;;;;;;;25.21;28.90;97478.59;5080566;27;20019;-75
2021/04/01 08:45:06;;;;;;;5.95;3.50;;;;;;;25.23;28.62;97476.38;5133267;27;20031;-75
2021/04/01 08:48:00;;;;;;;4.00;3.03;;;;;;;25.61;27.83;97481.38;5058246;27;20040;-75
2021/04/01 08:50:33;;;;;;;5.47;3.25;;;;;;;25.88;27.42;97473.78;5101057;27;20481;-75
2021/04/01 08:53:26;;;;;;;6.15;3.45;;;;;;;26.14;27.09;97480.63;5089955;27;20039;-75
2021/04/01 08:56:17;;;;;;;5.70;2.90;;;;;;;25.90;27.96;97471.53;5129086;27;20418;-75
2021/04/01 08:58:51;;;;;;;4.03;2.70;;;;;;;26.16;27.78;97467.72;5075845;27;20032;-75
2021/04/01 09:01:18;;;;;;;3.80;2.80;;;;;;;26.34;27.33;97454.84;5108282;27;20054;-75
2021/04/01 09:03:48;;;;;;;3.92;3.10;;;;;;;26.23;26.99;97467.13;5095249;27;20114;-75
2021/04/01 09:06:18;;;;;;;4.40;3.50;;;;;;;26.55;27.05;97457.31;5074797;27;20109;-75
2021/04/01 09:08:54;;;;;;;4.57;2.88;;;;;;;26.66;26.53;97457.59;5102339;27;20050;-75
2021/04/01 09:11:31;;;;;;;3.95;2.92;;;;;;;26.74;27.07;97464.69;5113787;27;20087;-75
2021/04/01 09:13:56;;;;;;;6.32;3.00;;;;;;;27.23;25.87;97463.53;5106439;28;20118;-75
2021/04/01 09:16:30;;;;;;;5.35;3.30;;;;;;;27.49;25.31;97462.22;5113596;27;20558;-75
2021/04/01 09:19:04;;;;;;;6.30;3.05;;;;;;;27.00;27.00;97468.75;5073726;28;20075;-75
2021/04/01 09:21:34;;;;;;;3.90;2.80;;;;;;;27.36;26.01;97462.34;5131325;27;20027;-75
2021/04/01 09:24:01;;;;;;;6.15;3.55;;;;;;;27.40;25.45;97457.88;5073425;28;20031;-75
2021/04/01 09:26:26;;;;;;;5.20;3.55;;;;;;;27.46;25.73;97453.78;5093240;28;20027;-75
2021/04/01 09:29:03;;;;;;;4.75;2.90;;;;;;;26.83;26.50;97451.91;5092817;28;20039;-75
2021/04/01 09:31:36;;;;;;;5.07;3.33;;;;;;;27.27;25.93;97453.72;5110797;27;20263;-75
2021/04/01 09:34:02;;;;;;;5.82;3.00;;;;;;;27.42;26.16;97449.50;5066724;27;20023;-75
2021/04/01 09:36:38;;;;;;;4.45;3.00;;;;;;;27.31;26.46;97448.47;5104055;27;20063;-75
2021/04/01 09:41:49;;;;;;;6.45;3.13;;;;;;;27.79;24.50;97441.84;5106689;28;20231;-75
2021/04/01 09:44:14;;;;;;;4.03;2.83;;;;;;;28.19;24.22;97442.69;5107360;28;20722;-75
2021/04/01 09:47:15;;;;;;;5.97;3.08;;;;;;;27.68;25.08;97440.88;5103014;28;20115;-75
2021/04/01 09:50:08;;;;;;;3.63;3.13;;;;;;;28.20;23.88;97433.50;5006251;27;20035;-76
2021/04/01 09:52:35;;;;;;;4.13;2.90;;;;;;;28.43;24.28;97436.25;5090673;27;20032;-75
2021/04/01 09:55:03;;;;;;;5.20;3.00;;;;;;;28.27;24.26;97435.53;5102564;27;20066;-75
2021/04/01 09:57:43;;;;;;;5.20;3.25;;;;;;;27.88;25.36;97438.22;5097840;28;20051;-75
2021/04/01 10:00:19;;;;;;;7.25;3.30;;;;;;;28.25;25.34;97440.50;5095327;28;20082;-75
2021/04/01 10:02:55;;;;;;;4.78;2.75;;;;;;;27.89;25.79;97440.53;5108377;27;20072;-75
2021/04/01 10:05:21;;;;;;;5.20;3.72;;;;;;;28.45;23.72;97441.25;5092611;27;20042;-75
2021/04/01 10:07:56;;;;;;;8.93;4.60;;;;;;;28.52;22.61;97442.13;5110209;27;20035;-75
2021/04/01 10:10:36;;;;;;;7.95;3.90;;;;;;;28.61;23.23;97438.47;5112235;27;20031;-75
2021/04/01 10:13:01;;;;;;;8.23;4.18;;;;;;;29.19;21.03;97435.59;5112695;27;20035;-75
2021/04/01 10:15:31;;;;;;;7.38;4.07;;;;;;;28.24;23.21;97428.22;5090499;28;20027;-76
2021/04/01 10:17:57;;;;;;;10.20;4.20;;;;;;;28.69;22.84;97422.16;5109037;28;20031;-75
2021/04/01 10:20:23;;;;;;;8.52;5.75;;;;;;;27.81;23.23;97428.94;5101289;27;20262;-75
2021/04/01 10:22:48;;;;;;;11.65;7.03;;;;;;;28.19;22.47;97416.69;5109082;27;20035;-75
2021/04/01 10:25:24;;;;;;;11.20;6.90;;;;;;;28.72;22.47;97415.28;5130952;27;20031;-75
2021/04/01 10:28:17;;;;;;;8.57;6.22;;;;;;;29.19;21.54;97419.50;5089844;27;20112;-76
2021/04/01 10:30:45;;;;;;;12.27;6.80;;;;;;;29.03;21.94;97418.84;5094727;27;20482;-75
2021/04/01 10:33:33;;;;;;;10.73;5.85;;;;;;;28.83;21.48;97405.53;5089013;27;20037;-75
2021/04/01 10:36:02;;;;;;;11.63;7.68;;;;;;;27.79;21.57;97409.75;5088836;27;20041;-75
2021/04/01 10:38:28;;;;;;;11.40;7.75;;;;;;;28.23;20.69;97410.63;5082588;28;20031;-75
2021/04/01 10:40:55;;;;;;;10.18;7.32;;;;;;;28.17;21.99;97402.88;5107957;28;20059;-75
2021/04/01 10:43:21;;;;;;;12.43;8.23;;;;;;;27.90;20.74;97409.19;5075647;27;20031;-75
2021/04/01 10:45:47;;;;;;;10.25;7.05;;;;;;;27.78;20.72;97402.88;5102039;27;20525;-75
2021/04/01 10:48:19;;;;;;;11.38;7.80;;;;;;;28.10;20.42;97408.06;5069683;27;20011;-75
2021/04/01 10:50:45;;;;;;;10.65;6.53;;;;;;;28.53;20.32;97400.81;5118673;27;20355;-76
2021/04/01 10:53:40;;;;;;;13.30;7.35;;;;;;;28.60;20.68;97396.72;5087223;27;20176;-75
2021/04/01 10:56:07;;;;;;;12.98;7.88;;;;;;;28.25;20.19;97386.94;5106141;27;20428;-75
2021/04/01 10:58:33;;;;;;;12.25;8.15;;;;;;;28.33;20.22;97393.97;5088854;28;20040;-75
2021/04/01 11:01:00;;;;;;;14.00;8.45;;;;;;;28.94;19.62;97386.94;5072590;28;20415;-76
2021/04/01 11:03:28;;;;;;;10.95;6.25;;;;;;;28.83;20.09;97392.13;5088381;27;20089;-75
2021/04/01 11:05:55;;;;;;;12.38;7.15;;;;;;;29.60;18.89;97387.47;5086129;27;20059;-75
2021/04/01 11:08:21;;;;;;;13.75;7.95;;;;;;;29.87;20.35;97382.84;5084733;27;20028;-75
2021/04/01 11:10:57;;;;;;;13.18;8.07;;;;;;;29.60;19.44;97378.66;5083624;27;20027;-76
2021/04/01 11:13:31;;;;;;;11.73;7.47;;;;;;;29.45;19.47;97383.84;5102964;27;20434;-76
2021/04/01 11:15:57;;;;;;;11.73;7.30;;;;;;;30.26;18.88;97379.00;5094392;27;20517;-76
2021/04/01 11:18:24;;;;;;;11.88;8.52;;;;;;;30.36;18.12;97391.03;5064471;27;20035;-76
2021/04/01 11:20:51;;;;;;;9.13;7.15;;;;;;;30.74;17.69;97391.72;5086690;27;20458;-76
2021/04/01 11:23:19;;;;;;;12.07;7.72;;;;;;;31.07;16.81;97393.53;5083359;27;20023;-76
2021/04/01 11:25:55;;;;;;;11.43;6.45;;;;;;;30.68;17.22;97394.00;5112364;27;20035;-75
2021/04/01 11:28:38;;;;;;;13.95;8.07;;;;;;;30.94;18.29;97394.97;5075837;27;20039;-76
2021/04/01 11:31:05;;;;;;;13.45;8.93;;;;;;;30.32;18.22;97393.66;5071512;28;20024;-75
2021/04/01 11:33:30;;;;;;;14.48;8.55;;;;;;;30.87;17.69;97401.03;5102236;28;20069;-76
2021/04/01 11:36:18;;;;;;;13.85;10.05;;;;;;;30.25;18.93;97396.28;5058928;28;20459;-76
2021/04/01 11:38:49;;;;;;;13.40;9.48;;;;;;;30.56;17.80;97389.66;5102783;27;20130;-76
2021/04/01 11:41:19;;;;;;;13.18;8.57;;;;;;;30.73;18.33;97384.81;5085852;27;20031;-75
2021/04/01 11:43:52;;;;;;;14.73;9.23;;;;;;;30.87;17.66;97389.53;5093701;27;20125;-76
2021/04/01 11:46:30;;;;;;;12.45;8.98;;;;;;;30.53;18.14;97392.31;5094027;27;20478;-75
2021/04/01 11:48:57;;;;;;;11.80;7.70;;;;;;;30.05;18.79;97391.06;5069951;27;20028;-75
2021/04/01 11:51:29;;;;;;;9.70;7.00;;;;;;;30.58;19.19;97389.28;5093950;27;20498;-76
2021/04/01 11:53:55;;;;;;;13.50;8.25;;;;;;;30.59;18.48;97388.94;5076974;27;20031;-76
2021/04/01 11:56:23;;;;;;;12.80;8.00;;;;;;;29.98;18.67;97390.25;5093568;27;20377;-76
2021/04/01 11:58:50;;;;;;;11.52;7.00;;;;;;;29.62;19.04;97390.56;5092225;27;20043;-76
2021/04/01 12:01:25;;;;;;;9.65;6.93;;;;;;;30.56;18.61;97386.22;5093234;27;20107;-75
2021/04/01 12:04:07;;;;;;;11.93;7.68;;;;;;;30.87;17.82;97382.22;5070704;28;20060;-75
2021/04/01 12:06:35;;;;;;;8.95;6.25;;;;;;;30.73;18.51;97385.56;5083167;28;20102;-75
2021/04/01 12:09:01;;;;;;;9.60;6.15;;;;;;;30.92;17.22;97381.09;5092740;27;20518;-75
2021/04/01 12:11:41;;;;;;;10.93;5.30;;;;;;;30.72;16.02;97375.97;5105864;28;20035;-75
2021/04/01 12:14:09;;;;;;;11.18;5.47;;;;;;;31.17;16.26;97384.75;5090614;28;20028;-75
2021/04/01 12:16:35;;;;;;;8.48;5.95;;;;;;;30.14;18.03;97384.63;5092058;27;20493;-76
2021/04/01 12:19:02;;;;;;;11.40;5.38;;;;;;;29.91;17.64;97377.50;5092613;28;20033;-76
2021/04/01 12:21:28;;;;;;;11.40;7.25;;;;;;;29.56;17.88;97377.81;5063607;28;20031;-76
2021/04/01 12:23:56;;;;;;;10.52;6.63;;;;;;;29.61;19.32;97378.31;5069102;28;20023;-75
2021/04/01 12:26:22;;;;;;;10.77;5.50;;;;;;;29.75;17.99;97372.31;5093954;28;20054;-75
2021/04/01 12:28:58;;;;;;;8.82;5.18;;;;;;;29.42;18.05;97373.81;5103948;28;20086;-75
2021/04/01 12:31:37;;;;;;;7.68;5.03;;;;;;;28.78;18.48;97371.00;5059610;28;20089;-75
2021/04/01 12:34:03;;;;;;;7.57;4.45;;;;;;;28.85;19.19;97375.69;5086697;28;20570;-75
2021/04/01 12:36:39;;;;;;;11.35;5.60;;;;;;;28.17;18.54;97368.06;5069225;28;20032;-75
2021/04/01 12:39:08;;;;;;;7.45;5.03;;;;;;;28.76;18.06;97362.56;5120314;28;20039;-75
2021/04/01 12:41:38;;;;;;;11.32;6.72;;;;;;;29.21;18.17;97355.56;5110053;28;20043;-75
2021/04/01 12:44:05;;;;;;;9.93;4.97;;;;;;;29.23;18.92;97357.88;5087989;28;20056;-76
2021/04/01 12:46:45;;;;;;;12.25;7.03;;;;;;;29.03;18.50;97355.28;5109238;28;20035;-75
2021/04/01 12:49:11;;;;;;;12.13;6.90;;;;;;;28.84;19.22;97360.75;5128209;28;20035;-75
2021/04/01 12:51:44;;;;;;;11.05;8.05;;;;;;;28.42;19.88;97357.00;5076437;28;20031;-75
2021/04/01 12:54:12;;;;;;;13.93;8.30;;;;;;;29.18;19.37;97353.59;5089744;28;20354;-75
2021/04/01 12:56:41;;;;;;;12.20;7.28;;;;;;;28.62;20.06;97356.94;5100017;28;20036;-76
2021/04/01 12:59:10;;;;;;;16.33;8.38;;;;;;;28.42;19.98;97348.97;5072898;28;20043;-75
2021/04/01 13:01:41;;;;;;;12.05;7.90;;;;;;;28.67;20.33;97352.09;5076204;28;20034;-75
2021/04/01 13:04:14;;;;;;;16.17;9.90;;;;;;;28.10;21.17;97349.19;5093859;28;20029;-74
2021/04/01 13:12:09;;;;;;;18.05;10.82;;;;;;;26.80;23.11;97335.06;5113043;28;19918;-75
2021/04/01 13:14:35;;;;;;;20.23;11.77;;;;;;;27.26;22.36;97335.31;5076992;27;20043;-75
2021/04/01 13:17:01;;;;;;;20.73;12.00;;;;;;;27.51;22.64;97323.59;5097452;27;20525;-76